sensor_id;sensor_type;location;lat;lon;timestamp;P1;durP1;ratioP1;P2;durP2;ratioP2
19969;SDS011;10146;47.754;9.566;2023-08-17T00:01:34;2.38;;;1.80;;
19969;SDS011;10146;47.754;9.566;2023-08-17T00:03:59;3.13;;;1.88;;
19969;SDS011;10146;47.754;9.566;2023-08-17T00:06:25;3.08;;;1.92;;
19969;SDS011;10146;47.754;9.566;2023-08-17T00:08:51;2.47;;;1.90;;
19969;SDS011;10146;47.754;9.566;2023-08-17T00:11:16;3.53;;;1.85;;
19969;SDS011;10146;47.754;9.566;2023-08-17T00:13:42;3.72;;;1.90;;
19969;SDS011;10146;47.754;9.566;2023-08-17T00:16:07;2.00;;;1.83;;
19969;SDS011;10146;47.754;9.566;2023-08-17T00:18:34;2.67;;;1.55;;
19969;SDS011;10146;47.754;9.566;2023-08-17T00:20:59;2.95;;;1.95;;
19969;SDS011;10146;47.754;9.566;2023-08-17T00:23:25;2.10;;;1.90;;
19969;SDS011;10146;47.754;9.566;2023-08-17T00:25:51;4.00;;;2.20;;
19969;SDS011;10146;47.754;9.566;2023-08-17T00:28:16;4.38;;;2.10;;
19969;SDS011;10146;47.754;9.566;2023-08-17T00:30:42;2.50;;;1.73;;
19969;SDS011;10146;47.754;9.566;2023-08-17T00:33:08;2.75;;;1.70;;
19969;SDS011;10146;47.754;9.566;2023-08-17T00:35:33;2.50;;;1.95;;
19969;SDS011;10146;47.754;9.566;2023-08-17T00:37:59;4.35;;;1.88;;
19969;SDS011;10146;47.754;9.566;2023-08-17T00:40:25;3.08;;;1.75;;
19969;SDS011;10146;47.754;9.566;2023-08-17T00:42:51;1.85;;;1.75;;
19969;SDS011;10146;47.754;9.566;2023-08-17T00:45:17;3.15;;;2.20;;
19969;SDS011;10146;47.754;9.566;2023-08-17T00:47:43;3.83;;;2.05;;
19969;SDS011;10146;47.754;9.566;2023-08-17T00:50:10;3.60;;;1.83;;
19969;SDS011;10146;47.754;9.566;2023-08-17T00:52:36;4.40;;;2.15;;
19969;SDS011;10146;47.754;9.566;2023-08-17T00:55:03;2.55;;;1.90;;
19969;SDS011;10146;47.754;9.566;2023-08-17T00:57:31;2.58;;;1.90;;
19969;SDS011;10146;47.754;9.566;2023-08-17T00:59:57;3.05;;;1.98;;
19969;SDS011;10146;47.754;9.566;2023-08-17T01:02:24;4.10;;;2.03;;
19969;SDS011;10146;47.754;9.566;2023-08-17T01:04:50;2.65;;;1.80;;
19969;SDS011;10146;47.754;9.566;2023-08-17T01:07:15;4.10;;;2.10;;
19969;SDS011;10146;47.754;9.566;2023-08-17T01:09:41;4.07;;;1.80;;
19969;SDS011;10146;47.754;9.566;2023-08-17T01:12:09;3.35;;;1.77;;
19969;SDS011;10146;47.754;9.566;2023-08-17T01:17:42;2.30;;;2.00;;
19969;SDS011;10146;47.754;9.566;2023-08-17T01:20:21;3.72;;;2.13;;
19969;SDS011;10146;47.754;9.566;2023-08-17T01:22:48;3.33;;;2.17;;
19969;SDS011;10146;47.754;9.566;2023-08-17T01:25:15;4.97;;;2.10;;
19969;SDS011;10146;47.754;9.566;2023-08-17T01:27:43;3.00;;;2.00;;
19969;SDS011;10146;47.754;9.566;2023-08-17T01:30:09;5.90;;;2.00;;
19969;SDS011;10146;47.754;9.566;2023-08-17T01:32:37;2.58;;;1.77;;
19969;SDS011;10146;47.754;9.566;2023-08-17T01:35:11;4.05;;;2.20;;
19969;SDS011;10146;47.754;9.566;2023-08-17T01:37:51;4.38;;;2.45;;
19969;SDS011;10146;47.754;9.566;2023-08-17T01:40:20;5.20;;;1.88;;
19969;SDS011;10146;47.754;9.566;2023-08-17T01:42:47;4.38;;;2.05;;
19969;SDS011;10146;47.754;9.566;2023-08-17T01:45:14;5.18;;;2.25;;
19969;SDS011;10146;47.754;9.566;2023-08-17T01:47:41;4.53;;;1.90;;
19969;SDS011;10146;47.754;9.566;2023-08-17T01:50:06;3.90;;;1.90;;
19969;SDS011;10146;47.754;9.566;2023-08-17T01:52:32;3.22;;;2.30;;
19969;SDS011;10146;47.754;9.566;2023-08-17T01:54:58;4.80;;;2.28;;
19969;SDS011;10146;47.754;9.566;2023-08-17T01:57:23;2.90;;;2.05;;
19969;SDS011;10146;47.754;9.566;2023-08-17T01:59:49;4.68;;;2.10;;
19969;SDS011;10146;47.754;9.566;2023-08-17T02:02:15;2.05;;;1.85;;
19969;SDS011;10146;47.754;9.566;2023-08-17T02:04:40;2.90;;;2.08;;
19969;SDS011;10146;47.754;9.566;2023-08-17T02:07:06;5.35;;;2.90;;
19969;SDS011;10146;47.754;9.566;2023-08-17T02:09:31;3.58;;;2.10;;
19969;SDS011;10146;47.754;9.566;2023-08-17T02:11:57;4.20;;;2.20;;
19969;SDS011;10146;47.754;9.566;2023-08-17T02:14:22;4.95;;;2.28;;
19969;SDS011;10146;47.754;9.566;2023-08-17T02:16:48;2.58;;;2.20;;
19969;SDS011;10146;47.754;9.566;2023-08-17T02:19:14;5.40;;;2.22;;
19969;SDS011;10146;47.754;9.566;2023-08-17T02:21:39;4.15;;;1.98;;
19969;SDS011;10146;47.754;9.566;2023-08-17T02:24:05;3.42;;;2.10;;
19969;SDS011;10146;47.754;9.566;2023-08-17T02:26:31;2.67;;;1.90;;
19969;SDS011;10146;47.754;9.566;2023-08-17T02:28:57;3.08;;;2.40;;
19969;SDS011;10146;47.754;9.566;2023-08-17T02:31:22;4.47;;;2.20;;
19969;SDS011;10146;47.754;9.566;2023-08-17T02:33:48;2.97;;;2.22;;
19969;SDS011;10146;47.754;9.566;2023-08-17T02:36:14;4.35;;;2.20;;
19969;SDS011;10146;47.754;9.566;2023-08-17T02:38:39;3.85;;;2.33;;
19969;SDS011;10146;47.754;9.566;2023-08-17T02:41:05;4.03;;;2.55;;
19969;SDS011;10146;47.754;9.566;2023-08-17T02:43:30;5.10;;;2.55;;
19969;SDS011;10146;47.754;9.566;2023-08-17T02:45:56;2.45;;;1.95;;
19969;SDS011;10146;47.754;9.566;2023-08-17T02:48:22;4.25;;;2.00;;
19969;SDS011;10146;47.754;9.566;2023-08-17T02:50:47;4.60;;;2.10;;
19969;SDS011;10146;47.754;9.566;2023-08-17T02:53:13;2.97;;;1.90;;
19969;SDS011;10146;47.754;9.566;2023-08-17T02:55:38;3.70;;;1.95;;
19969;SDS011;10146;47.754;9.566;2023-08-17T02:58:04;2.67;;;1.90;;
19969;SDS011;10146;47.754;9.566;2023-08-17T03:00:30;4.97;;;2.35;;
19969;SDS011;10146;47.754;9.566;2023-08-17T03:02:55;5.70;;;1.95;;
19969;SDS011;10146;47.754;9.566;2023-08-17T03:05:21;3.60;;;2.28;;
19969;SDS011;10146;47.754;9.566;2023-08-17T03:07:46;2.90;;;1.95;;
19969;SDS011;10146;47.754;9.566;2023-08-17T03:10:12;4.82;;;2.35;;
19969;SDS011;10146;47.754;9.566;2023-08-17T03:12:38;2.20;;;1.80;;
19969;SDS011;10146;47.754;9.566;2023-08-17T03:15:04;2.42;;;2.10;;
19969;SDS011;10146;47.754;9.566;2023-08-17T03:17:31;2.65;;;1.95;;
19969;SDS011;10146;47.754;9.566;2023-08-17T03:19:56;6.80;;;2.10;;
19969;SDS011;10146;47.754;9.566;2023-08-17T03:22:24;4.25;;;2.28;;
19969;SDS011;10146;47.754;9.566;2023-08-17T03:24:50;3.58;;;2.30;;
19969;SDS011;10146;47.754;9.566;2023-08-17T03:27:15;4.40;;;2.47;;
19969;SDS011;10146;47.754;9.566;2023-08-17T03:29:41;2.70;;;2.33;;
19969;SDS011;10146;47.754;9.566;2023-08-17T03:32:06;4.22;;;2.78;;
19969;SDS011;10146;47.754;9.566;2023-08-17T03:34:32;5.90;;;2.40;;
19969;SDS011;10146;47.754;9.566;2023-08-17T03:36:57;5.35;;;2.70;;
19969;SDS011;10146;47.754;9.566;2023-08-17T03:39:23;3.90;;;2.60;;
19969;SDS011;10146;47.754;9.566;2023-08-17T03:41:49;4.85;;;2.72;;
19969;SDS011;10146;47.754;9.566;2023-08-17T03:44:14;6.47;;;2.85;;
19969;SDS011;10146;47.754;9.566;2023-08-17T03:46:41;5.00;;;2.80;;
19969;SDS011;10146;47.754;9.566;2023-08-17T03:49:06;4.90;;;2.90;;
19969;SDS011;10146;47.754;9.566;2023-08-17T03:51:32;6.30;;;3.63;;
19969;SDS011;10146;47.754;9.566;2023-08-17T03:53:57;6.82;;;3.17;;
19969;SDS011;10146;47.754;9.566;2023-08-17T03:56:24;3.67;;;2.55;;
19969;SDS011;10146;47.754;9.566;2023-08-17T03:58:49;12.23;;;3.30;;
19969;SDS011;10146;47.754;9.566;2023-08-17T04:01:15;6.00;;;2.65;;
19969;SDS011;10146;47.754;9.566;2023-08-17T04:03:41;5.68;;;2.58;;
19969;SDS011;10146;47.754;9.566;2023-08-17T04:06:07;6.15;;;2.58;;
19969;SDS011;10146;47.754;9.566;2023-08-17T04:08:35;5.47;;;2.55;;
19969;SDS011;10146;47.754;9.566;2023-08-17T04:11:04;3.70;;;2.83;;
19969;SDS011;10146;47.754;9.566;2023-08-17T04:13:30;5.15;;;2.20;;
19969;SDS011;10146;47.754;9.566;2023-08-17T04:15:56;3.85;;;2.83;;
19969;SDS011;10146;47.754;9.566;2023-08-17T04:18:22;4.00;;;2.40;;
19969;SDS011;10146;47.754;9.566;2023-08-17T04:20:47;3.58;;;2.78;;
19969;SDS011;10146;47.754;9.566;2023-08-17T04:23:13;3.65;;;2.80;;
19969;SDS011;10146;47.754;9.566;2023-08-17T04:25:39;4.85;;;2.58;;
19969;SDS011;10146;47.754;9.566;2023-08-17T04:28:05;4.65;;;2.78;;
19969;SDS011;10146;47.754;9.566;2023-08-17T04:30:31;7.05;;;2.83;;
19969;SDS011;10146;47.754;9.566;2023-08-17T04:32:56;3.30;;;2.50;;
19969;SDS011;10146;47.754;9.566;2023-08-17T04:35:22;5.97;;;3.10;;
19969;SDS011;10146;47.754;9.566;2023-08-17T04:37:48;3.95;;;2.47;;
19969;SDS011;10146;47.754;9.566;2023-08-17T04:40:13;7.60;;;2.80;;
19969;SDS011;10146;47.754;9.566;2023-08-17T04:42:39;4.18;;;2.90;;
19969;SDS011;10146;47.754;9.566;2023-08-17T04:45:05;3.40;;;2.53;;
19969;SDS011;10146;47.754;9.566;2023-08-17T04:47:31;3.50;;;2.60;;
19969;SDS011;10146;47.754;9.566;2023-08-17T04:49:57;4.68;;;2.58;;
19969;SDS011;10146;47.754;9.566;2023-08-17T04:52:23;3.15;;;2.40;;
19969;SDS011;10146;47.754;9.566;2023-08-17T04:54:48;3.35;;;2.85;;
19969;SDS011;10146;47.754;9.566;2023-08-17T04:57:14;5.20;;;2.83;;
19969;SDS011;10146;47.754;9.566;2023-08-17T04:59:40;4.38;;;2.90;;
19969;SDS011;10146;47.754;9.566;2023-08-17T05:02:05;4.20;;;2.80;;
19969;SDS011;10146;47.754;9.566;2023-08-17T05:04:31;3.90;;;2.47;;
19969;SDS011;10146;47.754;9.566;2023-08-17T05:06:57;5.75;;;2.65;;
19969;SDS011;10146;47.754;9.566;2023-08-17T05:09:22;5.53;;;3.05;;
19969;SDS011;10146;47.754;9.566;2023-08-17T05:11:48;4.22;;;3.03;;
19969;SDS011;10146;47.754;9.566;2023-08-17T05:14:13;5.00;;;3.30;;
19969;SDS011;10146;47.754;9.566;2023-08-17T05:16:39;4.07;;;2.88;;
19969;SDS011;10146;47.754;9.566;2023-08-17T05:19:05;4.70;;;2.70;;
19969;SDS011;10146;47.754;9.566;2023-08-17T05:21:30;3.22;;;2.75;;
19969;SDS011;10146;47.754;9.566;2023-08-17T05:23:56;4.50;;;2.97;;
19969;SDS011;10146;47.754;9.566;2023-08-17T05:26:22;5.05;;;2.90;;
19969;SDS011;10146;47.754;9.566;2023-08-17T05:28:47;3.25;;;2.85;;
19969;SDS011;10146;47.754;9.566;2023-08-17T05:31:13;3.78;;;2.83;;
19969;SDS011;10146;47.754;9.566;2023-08-17T05:33:38;3.88;;;3.00;;
19969;SDS011;10146;47.754;9.566;2023-08-17T05:36:06;5.07;;;3.22;;
19969;SDS011;10146;47.754;9.566;2023-08-17T05:38:32;5.90;;;3.20;;
19969;SDS011;10146;47.754;9.566;2023-08-17T05:40:58;5.03;;;2.83;;
19969;SDS011;10146;47.754;9.566;2023-08-17T05:43:25;4.28;;;2.90;;
19969;SDS011;10146;47.754;9.566;2023-08-17T05:45:50;2.83;;;2.53;;
19969;SDS011;10146;47.754;9.566;2023-08-17T05:48:18;5.60;;;2.78;;
19969;SDS011;10146;47.754;9.566;2023-08-17T05:50:44;4.28;;;3.08;;
19969;SDS011;10146;47.754;9.566;2023-08-17T05:53:10;3.13;;;2.90;;
19969;SDS011;10146;47.754;9.566;2023-08-17T05:55:35;3.20;;;2.50;;
19969;SDS011;10146;47.754;9.566;2023-08-17T05:58:01;3.78;;;2.55;;
19969;SDS011;10146;47.754;9.566;2023-08-17T06:00:28;4.28;;;2.92;;
19969;SDS011;10146;47.754;9.566;2023-08-17T06:02:55;3.70;;;2.50;;
19969;SDS011;10146;47.754;9.566;2023-08-17T06:05:26;2.92;;;2.20;;
19969;SDS011;10146;47.754;9.566;2023-08-17T06:07:52;3.15;;;2.38;;
19969;SDS011;10146;47.754;9.566;2023-08-17T06:10:17;3.17;;;2.70;;
19969;SDS011;10146;47.754;9.566;2023-08-17T06:12:43;3.05;;;2.78;;
19969;SDS011;10146;47.754;9.566;2023-08-17T06:15:09;3.03;;;2.72;;
19969;SDS011;10146;47.754;9.566;2023-08-17T06:17:35;4.63;;;3.10;;
19969;SDS011;10146;47.754;9.566;2023-08-17T06:20:00;3.30;;;3.00;;
19969;SDS011;10146;47.754;9.566;2023-08-17T06:22:27;2.70;;;2.50;;
19969;SDS011;10146;47.754;9.566;2023-08-17T06:24:53;4.03;;;2.90;;
19969;SDS011;10146;47.754;9.566;2023-08-17T06:27:19;3.72;;;2.65;;
19969;SDS011;10146;47.754;9.566;2023-08-17T06:29:44;4.88;;;2.85;;
19969;SDS011;10146;47.754;9.566;2023-08-17T06:32:10;3.10;;;2.67;;
19969;SDS011;10146;47.754;9.566;2023-08-17T06:34:35;3.78;;;2.92;;
19969;SDS011;10146;47.754;9.566;2023-08-17T06:37:02;3.65;;;2.58;;
19969;SDS011;10146;47.754;9.566;2023-08-17T06:39:28;3.35;;;2.85;;
19969;SDS011;10146;47.754;9.566;2023-08-17T06:41:54;4.82;;;3.03;;
19969;SDS011;10146;47.754;9.566;2023-08-17T06:44:20;2.83;;;2.47;;
19969;SDS011;10146;47.754;9.566;2023-08-17T06:46:46;4.75;;;3.25;;
19969;SDS011;10146;47.754;9.566;2023-08-17T06:49:12;3.17;;;2.67;;
19969;SDS011;10146;47.754;9.566;2023-08-17T06:51:38;3.50;;;2.92;;
19969;SDS011;10146;47.754;9.566;2023-08-17T06:54:04;4.32;;;2.65;;
19969;SDS011;10146;47.754;9.566;2023-08-17T06:56:32;4.65;;;2.92;;
19969;SDS011;10146;47.754;9.566;2023-08-17T06:58:58;2.72;;;2.53;;
19969;SDS011;10146;47.754;9.566;2023-08-17T07:01:23;4.93;;;3.10;;
19969;SDS011;10146;47.754;9.566;2023-08-17T07:03:49;5.22;;;3.00;;
19969;SDS011;10146;47.754;9.566;2023-08-17T07:06:14;4.32;;;2.53;;
19969;SDS011;10146;47.754;9.566;2023-08-17T07:08:40;4.20;;;2.83;;
19969;SDS011;10146;47.754;9.566;2023-08-17T07:11:06;9.43;;;3.13;;
19969;SDS011;10146;47.754;9.566;2023-08-17T07:13:33;9.63;;;4.25;;
19969;SDS011;10146;47.754;9.566;2023-08-17T07:15:59;3.53;;;3.03;;
19969;SDS011;10146;47.754;9.566;2023-08-17T07:18:24;5.18;;;2.65;;
19969;SDS011;10146;47.754;9.566;2023-08-17T07:20:50;4.45;;;2.80;;
19969;SDS011;10146;47.754;9.566;2023-08-17T07:23:15;3.78;;;2.72;;
19969;SDS011;10146;47.754;9.566;2023-08-17T07:25:41;4.07;;;2.45;;
19969;SDS011;10146;47.754;9.566;2023-08-17T07:28:07;3.78;;;2.53;;
19969;SDS011;10146;47.754;9.566;2023-08-17T07:30:32;3.42;;;3.05;;
19969;SDS011;10146;47.754;9.566;2023-08-17T07:32:58;4.85;;;2.70;;
19969;SDS011;10146;47.754;9.566;2023-08-17T07:35:23;4.20;;;2.75;;
19969;SDS011;10146;47.754;9.566;2023-08-17T07:37:49;3.38;;;2.80;;
19969;SDS011;10146;47.754;9.566;2023-08-17T07:40:14;4.43;;;2.95;;
19969;SDS011;10146;47.754;9.566;2023-08-17T07:42:40;5.43;;;2.70;;
19969;SDS011;10146;47.754;9.566;2023-08-17T07:45:06;4.40;;;2.70;;
19969;SDS011;10146;47.754;9.566;2023-08-17T07:47:33;4.60;;;2.95;;
19969;SDS011;10146;47.754;9.566;2023-08-17T07:50:01;3.13;;;2.80;;
19969;SDS011;10146;47.754;9.566;2023-08-17T07:52:28;3.35;;;3.05;;
19969;SDS011;10146;47.754;9.566;2023-08-17T07:54:53;4.43;;;2.97;;
19969;SDS011;10146;47.754;9.566;2023-08-17T07:57:19;3.50;;;3.20;;
19969;SDS011;10146;47.754;9.566;2023-08-17T07:59:44;3.75;;;2.92;;
19969;SDS011;10146;47.754;9.566;2023-08-17T08:02:10;3.20;;;2.85;;
19969;SDS011;10146;47.754;9.566;2023-08-17T08:04:36;3.83;;;2.78;;
19969;SDS011;10146;47.754;9.566;2023-08-17T08:07:01;4.70;;;2.70;;
19969;SDS011;10146;47.754;9.566;2023-08-17T08:09:27;3.33;;;2.70;;
19969;SDS011;10146;47.754;9.566;2023-08-17T08:11:53;5.15;;;2.90;;
19969;SDS011;10146;47.754;9.566;2023-08-17T08:14:18;7.82;;;6.53;;
19969;SDS011;10146;47.754;9.566;2023-08-17T08:16:44;2.83;;;2.58;;
19969;SDS011;10146;47.754;9.566;2023-08-17T08:19:10;5.15;;;3.10;;
19969;SDS011;10146;47.754;9.566;2023-08-17T08:21:35;4.88;;;2.97;;
19969;SDS011;10146;47.754;9.566;2023-08-17T08:24:01;3.22;;;2.85;;
19969;SDS011;10146;47.754;9.566;2023-08-17T08:26:26;3.60;;;3.30;;
19969;SDS011;10146;47.754;9.566;2023-08-17T08:28:52;4.15;;;2.78;;
19969;SDS011;10146;47.754;9.566;2023-08-17T08:31:18;4.32;;;3.03;;
19969;SDS011;10146;47.754;9.566;2023-08-17T08:33:43;4.60;;;2.80;;
19969;SDS011;10146;47.754;9.566;2023-08-17T08:36:09;3.83;;;2.60;;
19969;SDS011;10146;47.754;9.566;2023-08-17T08:38:34;3.70;;;2.83;;
19969;SDS011;10146;47.754;9.566;2023-08-17T08:41:01;3.47;;;2.83;;
19969;SDS011;10146;47.754;9.566;2023-08-17T08:43:27;3.67;;;2.95;;
19969;SDS011;10146;47.754;9.566;2023-08-17T08:45:52;3.28;;;2.97;;
19969;SDS011;10146;47.754;9.566;2023-08-17T08:48:20;4.50;;;2.97;;
19969;SDS011;10146;47.754;9.566;2023-08-17T08:50:47;3.78;;;2.92;;
19969;SDS011;10146;47.754;9.566;2023-08-17T08:53:15;3.90;;;2.80;;
19969;SDS011;10146;47.754;9.566;2023-08-17T08:55:53;3.17;;;2.88;;
19969;SDS011;10146;47.754;9.566;2023-08-17T08:58:21;4.18;;;3.00;;
19969;SDS011;10146;47.754;9.566;2023-08-17T09:00:46;4.93;;;3.15;;
19969;SDS011;10146;47.754;9.566;2023-08-17T09:03:12;6.65;;;3.00;;
19969;SDS011;10146;47.754;9.566;2023-08-17T09:05:40;5.13;;;3.08;;
19969;SDS011;10146;47.754;9.566;2023-08-17T09:08:08;4.65;;;3.03;;
19969;SDS011;10146;47.754;9.566;2023-08-17T09:10:35;4.13;;;2.72;;
19969;SDS011;10146;47.754;9.566;2023-08-17T09:13:00;4.93;;;2.63;;
19969;SDS011;10146;47.754;9.566;2023-08-17T09:15:26;3.97;;;2.63;;
19969;SDS011;10146;47.754;9.566;2023-08-17T09:17:52;3.88;;;2.60;;
19969;SDS011;10146;47.754;9.566;2023-08-17T09:20:34;3.53;;;3.13;;
19969;SDS011;10146;47.754;9.566;2023-08-17T09:23:10;3.78;;;3.45;;
19969;SDS011;10146;47.754;9.566;2023-08-17T09:25:38;4.85;;;3.00;;
19969;SDS011;10146;47.754;9.566;2023-08-17T09:28:09;3.22;;;2.80;;
19969;SDS011;10146;47.754;9.566;2023-08-17T09:30:59;6.80;;;2.65;;
19969;SDS011;10146;47.754;9.566;2023-08-17T09:33:31;4.78;;;2.80;;
19969;SDS011;10146;47.754;9.566;2023-08-17T09:35:57;3.42;;;3.00;;
19969;SDS011;10146;47.754;9.566;2023-08-17T09:38:24;3.75;;;3.13;;
19969;SDS011;10146;47.754;9.566;2023-08-17T09:40:51;3.42;;;2.92;;
19969;SDS011;10146;47.754;9.566;2023-08-17T09:43:17;3.38;;;3.00;;
19969;SDS011;10146;47.754;9.566;2023-08-17T09:45:44;5.03;;;3.35;;
19969;SDS011;10146;47.754;9.566;2023-08-17T09:48:13;3.42;;;3.08;;
19969;SDS011;10146;47.754;9.566;2023-08-17T09:50:41;7.85;;;3.40;;
19969;SDS011;10146;47.754;9.566;2023-08-17T09:53:08;3.55;;;2.80;;
19969;SDS011;10146;47.754;9.566;2023-08-17T09:55:37;3.28;;;2.97;;
19969;SDS011;10146;47.754;9.566;2023-08-17T09:58:06;3.33;;;2.85;;
19969;SDS011;10146;47.754;9.566;2023-08-17T10:00:33;6.15;;;3.20;;
19969;SDS011;10146;47.754;9.566;2023-08-17T10:03:00;5.63;;;3.35;;
19969;SDS011;10146;47.754;9.566;2023-08-17T10:05:30;8.10;;;3.92;;
19969;SDS011;10146;47.754;9.566;2023-08-17T10:08:00;4.60;;;3.13;;
19969;SDS011;10146;47.754;9.566;2023-08-17T10:10:28;3.50;;;3.20;;
19969;SDS011;10146;47.754;9.566;2023-08-17T10:13:08;5.40;;;3.90;;
19969;SDS011;10146;47.754;9.566;2023-08-17T10:15:49;4.82;;;3.92;;
19969;SDS011;10146;47.754;9.566;2023-08-17T10:18:37;5.00;;;3.20;;
19969;SDS011;10146;47.754;9.566;2023-08-17T10:23:54;3.58;;;3.28;;
19969;SDS011;10146;47.754;9.566;2023-08-17T10:26:21;5.15;;;3.22;;
19969;SDS011;10146;47.754;9.566;2023-08-17T10:28:48;3.88;;;3.13;;
19969;SDS011;10146;47.754;9.566;2023-08-17T10:31:15;3.97;;;3.40;;
19969;SDS011;10146;47.754;9.566;2023-08-17T10:33:41;3.67;;;3.35;;
19969;SDS011;10146;47.754;9.566;2023-08-17T10:36:09;3.83;;;3.30;;
19969;SDS011;10146;47.754;9.566;2023-08-17T10:38:37;6.68;;;3.38;;
19969;SDS011;10146;47.754;9.566;2023-08-17T10:41:09;4.18;;;3.42;;
19969;SDS011;10146;47.754;9.566;2023-08-17T10:46:37;3.53;;;3.30;;
19969;SDS011;10146;47.754;9.566;2023-08-17T10:49:05;4.10;;;3.30;;
19969;SDS011;10146;47.754;9.566;2023-08-17T10:51:33;5.68;;;3.90;;
19969;SDS011;10146;47.754;9.566;2023-08-17T10:54:01;3.97;;;3.20;;
19969;SDS011;10146;47.754;9.566;2023-08-17T10:56:28;5.20;;;3.78;;
19969;SDS011;10146;47.754;9.566;2023-08-17T10:58:55;5.88;;;3.58;;
19969;SDS011;10146;47.754;9.566;2023-08-17T11:01:32;4.53;;;3.58;;
19969;SDS011;10146;47.754;9.566;2023-08-17T11:04:17;5.40;;;3.40;;
19969;SDS011;10146;47.754;9.566;2023-08-17T11:06:43;4.35;;;3.50;;
19969;SDS011;10146;47.754;9.566;2023-08-17T11:09:10;3.67;;;3.38;;
19969;SDS011;10146;47.754;9.566;2023-08-17T11:11:36;5.22;;;3.28;;
19969;SDS011;10146;47.754;9.566;2023-08-17T11:14:03;5.40;;;3.13;;
19969;SDS011;10146;47.754;9.566;2023-08-17T11:16:29;6.63;;;3.50;;
19969;SDS011;10146;47.754;9.566;2023-08-17T11:18:55;4.03;;;3.13;;
19969;SDS011;10146;47.754;9.566;2023-08-17T11:21:23;3.90;;;3.20;;
19969;SDS011;10146;47.754;9.566;2023-08-17T11:23:49;4.60;;;3.30;;
19969;SDS011;10146;47.754;9.566;2023-08-17T11:26:18;5.40;;;3.13;;
19969;SDS011;10146;47.754;9.566;2023-08-17T11:28:44;4.22;;;3.13;;
19969;SDS011;10146;47.754;9.566;2023-08-17T11:31:10;4.03;;;3.20;;
19969;SDS011;10146;47.754;9.566;2023-08-17T11:33:38;5.10;;;3.25;;
19969;SDS011;10146;47.754;9.566;2023-08-17T11:36:05;5.50;;;3.33;;
19969;SDS011;10146;47.754;9.566;2023-08-17T11:38:36;3.72;;;3.20;;
19969;SDS011;10146;47.754;9.566;2023-08-17T11:41:03;3.38;;;2.85;;
19969;SDS011;10146;47.754;9.566;2023-08-17T11:43:30;4.80;;;3.50;;
19969;SDS011;10146;47.754;9.566;2023-08-17T11:45:57;5.40;;;3.33;;
19969;SDS011;10146;47.754;9.566;2023-08-17T11:48:23;4.32;;;3.88;;
19969;SDS011;10146;47.754;9.566;2023-08-17T11:50:49;3.78;;;3.47;;
19969;SDS011;10146;47.754;9.566;2023-08-17T11:53:15;4.07;;;3.45;;
19969;SDS011;10146;47.754;9.566;2023-08-17T11:55:41;4.65;;;3.75;;
19969;SDS011;10146;47.754;9.566;2023-08-17T11:58:07;4.43;;;3.60;;
19969;SDS011;10146;47.754;9.566;2023-08-17T12:00:36;7.65;;;3.70;;
19969;SDS011;10146;47.754;9.566;2023-08-17T12:03:06;3.80;;;3.50;;
19969;SDS011;10146;47.754;9.566;2023-08-17T12:05:32;5.57;;;4.00;;
19969;SDS011;10146;47.754;9.566;2023-08-17T12:08:01;5.55;;;4.13;;
19969;SDS011;10146;47.754;9.566;2023-08-17T12:10:33;5.55;;;3.72;;
19969;SDS011;10146;47.754;9.566;2023-08-17T12:12:59;4.10;;;3.75;;
19969;SDS011;10146;47.754;9.566;2023-08-17T12:15:32;4.93;;;3.55;;
19969;SDS011;10146;47.754;9.566;2023-08-17T12:17:59;4.18;;;3.78;;
19969;SDS011;10146;47.754;9.566;2023-08-17T12:20:26;5.20;;;3.60;;
19969;SDS011;10146;47.754;9.566;2023-08-17T12:22:52;4.78;;;3.92;;
19969;SDS011;10146;47.754;9.566;2023-08-17T12:25:20;4.53;;;4.10;;
19969;SDS011;10146;47.754;9.566;2023-08-17T12:27:47;3.95;;;3.65;;
19969;SDS011;10146;47.754;9.566;2023-08-17T12:30:34;4.63;;;4.22;;
19969;SDS011;10146;47.754;9.566;2023-08-17T12:33:01;6.93;;;4.50;;
19969;SDS011;10146;47.754;9.566;2023-08-17T12:35:27;4.82;;;4.32;;
19969;SDS011;10146;47.754;9.566;2023-08-17T12:37:53;5.38;;;4.65;;
19969;SDS011;10146;47.754;9.566;2023-08-17T12:40:20;7.88;;;4.22;;
19969;SDS011;10146;47.754;9.566;2023-08-17T12:42:46;4.63;;;4.22;;
19969;SDS011;10146;47.754;9.566;2023-08-17T12:45:12;4.95;;;4.40;;
19969;SDS011;10146;47.754;9.566;2023-08-17T12:47:38;5.18;;;4.00;;
19969;SDS011;10146;47.754;9.566;2023-08-17T12:50:04;5.78;;;4.40;;
19969;SDS011;10146;47.754;9.566;2023-08-17T12:52:30;5.40;;;3.97;;
19969;SDS011;10146;47.754;9.566;2023-08-17T12:54:56;4.78;;;4.13;;
19969;SDS011;10146;47.754;9.566;2023-08-17T12:57:22;7.60;;;4.78;;
19969;SDS011;10146;47.754;9.566;2023-08-17T12:59:47;6.05;;;4.72;;
19969;SDS011;10146;47.754;9.566;2023-08-17T13:02:13;4.40;;;4.05;;
19969;SDS011;10146;47.754;9.566;2023-08-17T13:04:39;5.13;;;4.40;;
19969;SDS011;10146;47.754;9.566;2023-08-17T13:07:05;5.25;;;4.25;;
19969;SDS011;10146;47.754;9.566;2023-08-17T13:09:31;5.38;;;4.88;;
19969;SDS011;10146;47.754;9.566;2023-08-17T13:11:56;5.13;;;4.63;;
19969;SDS011;10146;47.754;9.566;2023-08-17T13:14:22;5.32;;;4.80;;
19969;SDS011;10146;47.754;9.566;2023-08-17T13:16:48;6.40;;;4.50;;
19969;SDS011;10146;47.754;9.566;2023-08-17T13:19:15;5.07;;;4.28;;
19969;SDS011;10146;47.754;9.566;2023-08-17T13:21:40;7.97;;;4.60;;
19969;SDS011;10146;47.754;9.566;2023-08-17T13:24:06;7.10;;;4.60;;
19969;SDS011;10146;47.754;9.566;2023-08-17T13:26:32;5.18;;;4.40;;
19969;SDS011;10146;47.754;9.566;2023-08-17T13:28:57;6.43;;;4.43;;
19969;SDS011;10146;47.754;9.566;2023-08-17T13:31:23;5.03;;;4.35;;
19969;SDS011;10146;47.754;9.566;2023-08-17T13:33:48;5.68;;;4.70;;
19969;SDS011;10146;47.754;9.566;2023-08-17T13:36:14;6.10;;;4.82;;
19969;SDS011;10146;47.754;9.566;2023-08-17T13:38:40;7.00;;;4.50;;
19969;SDS011;10146;47.754;9.566;2023-08-17T13:41:05;7.53;;;4.80;;
19969;SDS011;10146;47.754;9.566;2023-08-17T13:43:31;6.05;;;4.68;;
19969;SDS011;10146;47.754;9.566;2023-08-17T13:45:56;4.40;;;4.10;;
19969;SDS011;10146;47.754;9.566;2023-08-17T13:48:22;5.18;;;4.63;;
19969;SDS011;10146;47.754;9.566;2023-08-17T13:50:48;6.13;;;4.72;;
19969;SDS011;10146;47.754;9.566;2023-08-17T13:53:13;5.25;;;4.18;;
19969;SDS011;10146;47.754;9.566;2023-08-17T13:55:39;6.72;;;4.82;;
19969;SDS011;10146;47.754;9.566;2023-08-17T13:58:04;6.32;;;4.63;;
19969;SDS011;10146;47.754;9.566;2023-08-17T14:00:30;5.82;;;5.32;;
19969;SDS011;10146;47.754;9.566;2023-08-17T14:02:56;10.07;;;4.80;;
19969;SDS011;10146;47.754;9.566;2023-08-17T14:05:21;6.45;;;5.07;;
19969;SDS011;10146;47.754;9.566;2023-08-17T14:07:47;8.48;;;5.03;;
19969;SDS011;10146;47.754;9.566;2023-08-17T14:10:13;6.22;;;4.60;;
19969;SDS011;10146;47.754;9.566;2023-08-17T14:12:39;7.57;;;4.65;;
19969;SDS011;10146;47.754;9.566;2023-08-17T14:15:05;8.23;;;4.70;;
19969;SDS011;10146;47.754;9.566;2023-08-17T14:17:32;7.03;;;4.70;;
19969;SDS011;10146;47.754;9.566;2023-08-17T14:19:58;7.43;;;4.90;;
19969;SDS011;10146;47.754;9.566;2023-08-17T14:22:23;6.05;;;4.72;;
19969;SDS011;10146;47.754;9.566;2023-08-17T14:24:49;5.20;;;4.40;;
19969;SDS011;10146;47.754;9.566;2023-08-17T14:27:15;5.97;;;3.75;;
19969;SDS011;10146;47.754;9.566;2023-08-17T14:29:40;6.03;;;3.72;;
19969;SDS011;10146;47.754;9.566;2023-08-17T14:32:06;4.90;;;3.50;;
19969;SDS011;10146;47.754;9.566;2023-08-17T14:34:32;4.57;;;3.40;;
19969;SDS011;10146;47.754;9.566;2023-08-17T14:36:57;8.25;;;3.58;;
19969;SDS011;10146;47.754;9.566;2023-08-17T14:39:23;6.40;;;3.75;;
19969;SDS011;10146;47.754;9.566;2023-08-17T14:41:48;4.50;;;3.63;;
19969;SDS011;10146;47.754;9.566;2023-08-17T14:44:14;3.58;;;3.13;;
19969;SDS011;10146;47.754;9.566;2023-08-17T14:46:42;5.88;;;3.25;;
19969;SDS011;10146;47.754;9.566;2023-08-17T14:49:07;4.15;;;3.40;;
19969;SDS011;10146;47.754;9.566;2023-08-17T14:51:39;4.10;;;3.00;;
19969;SDS011;10146;47.754;9.566;2023-08-17T14:54:06;4.32;;;3.22;;